sensor_id;sensor_type;location;lat;lon;timestamp;P1;durP1;ratioP1;P2;durP2;ratioP2
7128;SDS011;3606;52.930;8.644;2022-11-20T00:00:50;19.43;;;12.83;;
7128;SDS011;3606;52.930;8.644;2022-11-20T00:03:15;16.43;;;11.37;;
7128;SDS011;3606;52.930;8.644;2022-11-20T00:05:42;20.27;;;11.33;;
7128;SDS011;3606;52.930;8.644;2022-11-20T00:08:08;18.17;;;11.00;;
7128;SDS011;3606;52.930;8.644;2022-11-20T00:10:35;19.03;;;10.97;;
7128;SDS011;3606;52.930;8.644;2022-11-20T00:13:02;15.17;;;10.17;;
7128;SDS011;3606;52.930;8.644;2022-11-20T00:15:27;18.87;;;11.27;;
7128;SDS011;3606;52.930;8.644;2022-11-20T00:17:53;19.10;;;12.43;;
7128;SDS011;3606;52.930;8.644;2022-11-20T00:20:18;18.83;;;11.83;;
7128;SDS011;3606;52.930;8.644;2022-11-20T00:22:44;21.00;;;11.90;;
7128;SDS011;3606;52.930;8.644;2022-11-20T00:25:10;19.07;;;11.90;;
7128;SDS011;3606;52.930;8.644;2022-11-20T00:27:36;21.73;;;13.50;;
7128;SDS011;3606;52.930;8.644;2022-11-20T00:30:02;18.73;;;12.43;;
7128;SDS011;3606;52.930;8.644;2022-11-20T00:32:28;24.00;;;12.77;;
7128;SDS011;3606;52.930;8.644;2022-11-20T00:34:54;22.80;;;11.93;;
7128;SDS011;3606;52.930;8.644;2022-11-20T00:37:20;15.63;;;11.57;;
7128;SDS011;3606;52.930;8.644;2022-11-20T00:39:45;14.97;;;10.90;;
7128;SDS011;3606;52.930;8.644;2022-11-20T00:42:11;15.83;;;10.40;;
7128;SDS011;3606;52.930;8.644;2022-11-20T00:44:36;20.67;;;12.17;;
7128;SDS011;3606;52.930;8.644;2022-11-20T00:47:02;13.23;;;9.43;;
7128;SDS011;3606;52.930;8.644;2022-11-20T00:49:28;13.33;;;9.60;;
7128;SDS011;3606;52.930;8.644;2022-11-20T00:51:53;17.60;;;10.83;;
7128;SDS011;3606;52.930;8.644;2022-11-20T00:54:19;18.00;;;10.10;;
7128;SDS011;3606;52.930;8.644;2022-11-20T00:56:44;17.87;;;11.13;;
7128;SDS011;3606;52.930;8.644;2022-11-20T00:59:10;18.17;;;11.50;;
7128;SDS011;3606;52.930;8.644;2022-11-20T01:01:36;12.17;;;9.90;;
7128;SDS011;3606;52.930;8.644;2022-11-20T01:04:02;15.20;;;9.77;;
7128;SDS011;3606;52.930;8.644;2022-11-20T01:06:31;18.23;;;9.67;;
7128;SDS011;3606;52.930;8.644;2022-11-20T01:08:59;14.57;;;9.80;;
7128;SDS011;3606;52.930;8.644;2022-11-20T01:11:28;11.67;;;9.30;;
7128;SDS011;3606;52.930;8.644;2022-11-20T01:13:57;13.47;;;8.97;;
7128;SDS011;3606;52.930;8.644;2022-11-20T01:16:25;19.30;;;9.90;;
7128;SDS011;3606;52.930;8.644;2022-11-20T01:18:52;14.57;;;9.33;;
7128;SDS011;3606;52.930;8.644;2022-11-20T01:21:22;16.23;;;10.50;;
7128;SDS011;3606;52.930;8.644;2022-11-20T01:23:50;12.80;;;9.60;;
7128;SDS011;3606;52.930;8.644;2022-11-20T01:26:17;15.13;;;9.77;;
7128;SDS011;3606;52.930;8.644;2022-11-20T01:28:45;14.30;;;9.33;;
7128;SDS011;3606;52.930;8.644;2022-11-20T01:31:29;12.87;;;9.23;;
7128;SDS011;3606;52.930;8.644;2022-11-20T01:33:57;15.93;;;9.40;;
7128;SDS011;3606;52.930;8.644;2022-11-20T01:36:30;14.47;;;9.23;;
7128;SDS011;3606;52.930;8.644;2022-11-20T01:38:58;13.47;;;9.53;;
7128;SDS011;3606;52.930;8.644;2022-11-20T01:41:26;12.37;;;8.57;;
7128;SDS011;3606;52.930;8.644;2022-11-20T01:44:12;14.17;;;9.70;;
7128;SDS011;3606;52.930;8.644;2022-11-20T01:46:40;15.17;;;8.73;;
7128;SDS011;3606;52.930;8.644;2022-11-20T01:49:20;15.80;;;9.63;;
7128;SDS011;3606;52.930;8.644;2022-11-20T01:51:57;13.27;;;9.00;;
7128;SDS011;3606;52.930;8.644;2022-11-20T01:54:33;11.33;;;8.10;;
7128;SDS011;3606;52.930;8.644;2022-11-20T01:57:02;15.20;;;9.20;;
7128;SDS011;3606;52.930;8.644;2022-11-20T01:59:30;13.87;;;9.37;;
7128;SDS011;3606;52.930;8.644;2022-11-20T02:01:56;11.97;;;8.77;;
7128;SDS011;3606;52.930;8.644;2022-11-20T02:04:22;16.20;;;9.87;;
7128;SDS011;3606;52.930;8.644;2022-11-20T02:06:54;10.97;;;7.93;;
7128;SDS011;3606;52.930;8.644;2022-11-20T02:09:25;12.63;;;8.73;;
7128;SDS011;3606;52.930;8.644;2022-11-20T02:11:51;11.20;;;8.53;;
7128;SDS011;3606;52.930;8.644;2022-11-20T02:14:17;13.93;;;9.20;;
7128;SDS011;3606;52.930;8.644;2022-11-20T02:16:47;14.57;;;9.17;;
7128;SDS011;3606;52.930;8.644;2022-11-20T02:19:22;12.93;;;8.83;;
7128;SDS011;3606;52.930;8.644;2022-11-20T02:24:36;12.67;;;8.13;;
7128;SDS011;3606;52.930;8.644;2022-11-20T02:27:12;12.40;;;8.57;;
7128;SDS011;3606;52.930;8.644;2022-11-20T02:32:35;12.57;;;8.80;;
7128;SDS011;3606;52.930;8.644;2022-11-20T02:35:38;12.47;;;8.80;;
7128;SDS011;3606;52.930;8.644;2022-11-20T02:37:57;12.60;;;8.50;;
7128;SDS011;3606;52.930;8.644;2022-11-20T02:40:25;10.63;;;8.30;;
7128;SDS011;3606;52.930;8.644;2022-11-20T02:42:54;11.37;;;8.07;;
7128;SDS011;3606;52.930;8.644;2022-11-20T02:45:20;12.97;;;8.97;;
7128;SDS011;3606;52.930;8.644;2022-11-20T02:47:47;13.77;;;8.93;;
7128;SDS011;3606;52.930;8.644;2022-11-20T02:50:13;10.60;;;8.33;;
7128;SDS011;3606;52.930;8.644;2022-11-20T02:52:39;13.97;;;8.37;;
7128;SDS011;3606;52.930;8.644;2022-11-20T02:55:04;12.47;;;8.23;;
7128;SDS011;3606;52.930;8.644;2022-11-20T02:57:30;14.33;;;8.90;;
7128;SDS011;3606;52.930;8.644;2022-11-20T02:59:56;14.63;;;8.20;;
7128;SDS011;3606;52.930;8.644;2022-11-20T03:02:21;12.03;;;7.80;;
7128;SDS011;3606;52.930;8.644;2022-11-20T03:04:47;11.77;;;7.40;;
7128;SDS011;3606;52.930;8.644;2022-11-20T03:07:12;10.37;;;8.23;;
7128;SDS011;3606;52.930;8.644;2022-11-20T03:09:38;12.73;;;8.57;;
7128;SDS011;3606;52.930;8.644;2022-11-20T03:12:04;11.83;;;7.60;;
7128;SDS011;3606;52.930;8.644;2022-11-20T03:14:30;11.03;;;7.50;;
7128;SDS011;3606;52.930;8.644;2022-11-20T03:16:55;11.43;;;7.83;;
7128;SDS011;3606;52.930;8.644;2022-11-20T03:19:21;12.83;;;8.00;;
7128;SDS011;3606;52.930;8.644;2022-11-20T03:21:46;12.10;;;8.43;;
7128;SDS011;3606;52.930;8.644;2022-11-20T03:24:12;11.23;;;9.00;;
7128;SDS011;3606;52.930;8.644;2022-11-20T03:26:39;15.57;;;9.43;;
7128;SDS011;3606;52.930;8.644;2022-11-20T03:29:05;12.07;;;9.27;;
7128;SDS011;3606;52.930;8.644;2022-11-20T03:31:35;20.07;;;10.17;;
7128;SDS011;3606;52.930;8.644;2022-11-20T03:34:03;14.67;;;9.43;;
7128;SDS011;3606;52.930;8.644;2022-11-20T03:36:29;12.97;;;8.60;;
7128;SDS011;3606;52.930;8.644;2022-11-20T03:38:55;13.00;;;8.60;;
7128;SDS011;3606;52.930;8.644;2022-11-20T03:41:25;13.90;;;9.20;;
7128;SDS011;3606;52.930;8.644;2022-11-20T03:43:53;11.43;;;8.70;;
7128;SDS011;3606;52.930;8.644;2022-11-20T03:46:21;13.97;;;8.90;;
7128;SDS011;3606;52.930;8.644;2022-11-20T03:48:47;11.73;;;8.50;;
7128;SDS011;3606;52.930;8.644;2022-11-20T03:51:17;8.93;;;7.23;;
7128;SDS011;3606;52.930;8.644;2022-11-20T03:53:51;17.60;;;8.53;;
7128;SDS011;3606;52.930;8.644;2022-11-20T03:56:20;11.90;;;7.60;;
7128;SDS011;3606;52.930;8.644;2022-11-20T03:58:56;13.83;;;8.20;;
7128;SDS011;3606;52.930;8.644;2022-11-20T04:01:24;11.80;;;8.07;;
7128;SDS011;3606;52.930;8.644;2022-11-20T04:03:51;13.87;;;8.40;;
7128;SDS011;3606;52.930;8.644;2022-11-20T04:06:19;15.27;;;8.30;;
7128;SDS011;3606;52.930;8.644;2022-11-20T04:08:46;11.83;;;8.07;;
7128;SDS011;3606;52.930;8.644;2022-11-20T04:11:13;13.27;;;7.50;;
7128;SDS011;3606;52.930;8.644;2022-11-20T04:13:40;12.07;;;8.00;;
7128;SDS011;3606;52.930;8.644;2022-11-20T04:16:07;14.67;;;7.70;;
7128;SDS011;3606;52.930;8.644;2022-11-20T04:18:33;12.33;;;8.73;;
7128;SDS011;3606;52.930;8.644;2022-11-20T04:20:59;12.40;;;7.53;;
7128;SDS011;3606;52.930;8.644;2022-11-20T04:23:25;10.40;;;7.17;;
7128;SDS011;3606;52.930;8.644;2022-11-20T04:25:51;15.30;;;7.27;;
7128;SDS011;3606;52.930;8.644;2022-11-20T04:28:17;11.93;;;7.73;;
7128;SDS011;3606;52.930;8.644;2022-11-20T04:30:43;10.43;;;7.53;;
7128;SDS011;3606;52.930;8.644;2022-11-20T04:33:09;10.07;;;7.47;;
7128;SDS011;3606;52.930;8.644;2022-11-20T04:35:34;15.20;;;8.87;;
7128;SDS011;3606;52.930;8.644;2022-11-20T04:38:00;13.90;;;7.57;;
7128;SDS011;3606;52.930;8.644;2022-11-20T04:40:27;11.73;;;8.40;;
7128;SDS011;3606;52.930;8.644;2022-11-20T04:42:53;12.30;;;7.93;;
7128;SDS011;3606;52.930;8.644;2022-11-20T04:45:19;12.97;;;7.63;;
7128;SDS011;3606;52.930;8.644;2022-11-20T04:47:45;11.97;;;7.20;;
7128;SDS011;3606;52.930;8.644;2022-11-20T04:50:11;10.07;;;6.93;;
7128;SDS011;3606;52.930;8.644;2022-11-20T04:52:37;8.87;;;6.63;;
7128;SDS011;3606;52.930;8.644;2022-11-20T04:55:03;13.17;;;7.30;;
7128;SDS011;3606;52.930;8.644;2022-11-20T04:57:29;10.30;;;7.50;;
7128;SDS011;3606;52.930;8.644;2022-11-20T04:59:54;8.23;;;6.17;;
7128;SDS011;3606;52.930;8.644;2022-11-20T05:02:20;11.40;;;6.73;;
7128;SDS011;3606;52.930;8.644;2022-11-20T05:04:46;11.23;;;6.57;;
7128;SDS011;3606;52.930;8.644;2022-11-20T05:07:11;8.03;;;6.53;;
7128;SDS011;3606;52.930;8.644;2022-11-20T05:09:37;10.50;;;6.60;;
7128;SDS011;3606;52.930;8.644;2022-11-20T05:12:02;11.70;;;6.40;;
7128;SDS011;3606;52.930;8.644;2022-11-20T05:14:28;10.07;;;6.20;;
7128;SDS011;3606;52.930;8.644;2022-11-20T05:16:54;8.40;;;6.43;;
7128;SDS011;3606;52.930;8.644;2022-11-20T05:19:19;6.67;;;5.73;;
7128;SDS011;3606;52.930;8.644;2022-11-20T05:21:45;9.80;;;6.63;;
7128;SDS011;3606;52.930;8.644;2022-11-20T05:24:10;7.07;;;6.17;;
7128;SDS011;3606;52.930;8.644;2022-11-20T05:26:36;8.10;;;6.30;;
7128;SDS011;3606;52.930;8.644;2022-11-20T05:29:02;11.60;;;5.87;;
7128;SDS011;3606;52.930;8.644;2022-11-20T05:31:27;9.80;;;6.33;;
7128;SDS011;3606;52.930;8.644;2022-11-20T05:33:53;9.60;;;5.90;;
7128;SDS011;3606;52.930;8.644;2022-11-20T05:36:19;9.83;;;6.30;;
7128;SDS011;3606;52.930;8.644;2022-11-20T05:38:45;9.03;;;6.40;;
7128;SDS011;3606;52.930;8.644;2022-11-20T05:41:12;9.20;;;5.67;;
7128;SDS011;3606;52.930;8.644;2022-11-20T05:43:40;8.73;;;5.83;;
7128;SDS011;3606;52.930;8.644;2022-11-20T05:46:07;10.83;;;6.37;;
7128;SDS011;3606;52.930;8.644;2022-11-20T05:48:34;12.47;;;7.03;;
7128;SDS011;3606;52.930;8.644;2022-11-20T05:51:01;10.90;;;6.57;;
7128;SDS011;3606;52.930;8.644;2022-11-20T05:53:28;9.57;;;6.43;;
7128;SDS011;3606;52.930;8.644;2022-11-20T05:55:58;9.90;;;6.00;;
7128;SDS011;3606;52.930;8.644;2022-11-20T05:58:32;8.43;;;6.50;;
7128;SDS011;3606;52.930;8.644;2022-11-20T06:01:11;8.80;;;6.57;;
7128;SDS011;3606;52.930;8.644;2022-11-20T06:03:40;11.03;;;6.67;;
7128;SDS011;3606;52.930;8.644;2022-11-20T06:06:08;7.90;;;5.77;;
7128;SDS011;3606;52.930;8.644;2022-11-20T06:08:34;7.73;;;5.70;;
7128;SDS011;3606;52.930;8.644;2022-11-20T06:11:07;8.13;;;5.97;;
7128;SDS011;3606;52.930;8.644;2022-11-20T06:13:34;8.17;;;5.80;;
7128;SDS011;3606;52.930;8.644;2022-11-20T06:16:00;13.23;;;6.23;;
7128;SDS011;3606;52.930;8.644;2022-11-20T06:18:27;9.23;;;6.50;;
7128;SDS011;3606;52.930;8.644;2022-11-20T06:21:00;17.27;;;9.57;;
7128;SDS011;3606;52.930;8.644;2022-11-20T06:23:27;11.77;;;9.07;;
7128;SDS011;3606;52.930;8.644;2022-11-20T06:25:54;10.50;;;7.67;;
7128;SDS011;3606;52.930;8.644;2022-11-20T06:28:20;16.23;;;7.83;;
7128;SDS011;3606;52.930;8.644;2022-11-20T06:30:45;12.17;;;7.17;;
7128;SDS011;3606;52.930;8.644;2022-11-20T06:33:11;11.70;;;7.97;;
7128;SDS011;3606;52.930;8.644;2022-11-20T06:35:36;22.47;;;11.17;;
7128;SDS011;3606;52.930;8.644;2022-11-20T06:38:02;24.40;;;13.47;;
7128;SDS011;3606;52.930;8.644;2022-11-20T06:40:27;15.13;;;9.23;;
7128;SDS011;3606;52.930;8.644;2022-11-20T06:42:53;18.03;;;10.10;;
7128;SDS011;3606;52.930;8.644;2022-11-20T06:45:19;13.27;;;8.50;;
7128;SDS011;3606;52.930;8.644;2022-11-20T06:47:46;15.17;;;8.20;;
7128;SDS011;3606;52.930;8.644;2022-11-20T06:50:11;11.77;;;7.27;;
7128;SDS011;3606;52.930;8.644;2022-11-20T06:52:37;9.70;;;7.00;;
7128;SDS011;3606;52.930;8.644;2022-11-20T06:55:03;7.33;;;6.03;;
7128;SDS011;3606;52.930;8.644;2022-11-20T06:57:29;10.27;;;6.87;;
7128;SDS011;3606;52.930;8.644;2022-11-20T06:59:55;8.20;;;6.90;;
7128;SDS011;3606;52.930;8.644;2022-11-20T07:02:20;8.23;;;6.07;;
7128;SDS011;3606;52.930;8.644;2022-11-20T07:04:46;9.10;;;6.47;;
7128;SDS011;3606;52.930;8.644;2022-11-20T07:07:11;12.60;;;8.03;;
7128;SDS011;3606;52.930;8.644;2022-11-20T07:09:37;10.90;;;6.47;;
7128;SDS011;3606;52.930;8.644;2022-11-20T07:12:03;11.87;;;6.97;;
7128;SDS011;3606;52.930;8.644;2022-11-20T07:14:28;9.40;;;6.70;;
7128;SDS011;3606;52.930;8.644;2022-11-20T07:16:54;9.97;;;6.70;;
7128;SDS011;3606;52.930;8.644;2022-11-20T07:19:20;13.13;;;8.53;;
7128;SDS011;3606;52.930;8.644;2022-11-20T07:21:45;15.77;;;11.33;;
7128;SDS011;3606;52.930;8.644;2022-11-20T07:24:11;17.30;;;10.77;;
7128;SDS011;3606;52.930;8.644;2022-11-20T07:26:37;12.47;;;7.30;;
7128;SDS011;3606;52.930;8.644;2022-11-20T07:29:02;15.90;;;6.87;;
7128;SDS011;3606;52.930;8.644;2022-11-20T07:31:28;8.57;;;6.90;;
7128;SDS011;3606;52.930;8.644;2022-11-20T07:33:54;13.10;;;7.50;;
7128;SDS011;3606;52.930;8.644;2022-11-20T07:36:19;13.40;;;7.60;;
7128;SDS011;3606;52.930;8.644;2022-11-20T07:38:45;10.30;;;7.63;;
7128;SDS011;3606;52.930;8.644;2022-11-20T07:41:10;7.30;;;6.10;;
7128;SDS011;3606;52.930;8.644;2022-11-20T07:43:36;12.33;;;7.07;;
7128;SDS011;3606;52.930;8.644;2022-11-20T07:46:01;8.63;;;6.33;;
7128;SDS011;3606;52.930;8.644;2022-11-20T07:48:28;8.27;;;6.30;;
7128;SDS011;3606;52.930;8.644;2022-11-20T07:50:54;11.00;;;6.70;;
7128;SDS011;3606;52.930;8.644;2022-11-20T07:53:21;13.87;;;6.90;;
7128;SDS011;3606;52.930;8.644;2022-11-20T07:55:46;10.50;;;6.83;;
7128;SDS011;3606;52.930;8.644;2022-11-20T07:58:12;10.87;;;6.57;;
7128;SDS011;3606;52.930;8.644;2022-11-20T08:00:39;10.97;;;6.50;;
7128;SDS011;3606;52.930;8.644;2022-11-20T08:03:04;9.10;;;6.53;;
7128;SDS011;3606;52.930;8.644;2022-11-20T08:05:30;9.53;;;6.57;;
7128;SDS011;3606;52.930;8.644;2022-11-20T08:07:56;9.53;;;7.00;;
7128;SDS011;3606;52.930;8.644;2022-11-20T08:10:22;8.57;;;6.57;;
7128;SDS011;3606;52.930;8.644;2022-11-20T08:12:48;12.00;;;7.13;;
7128;SDS011;3606;52.930;8.644;2022-11-20T08:15:34;9.07;;;7.20;;
7128;SDS011;3606;52.930;8.644;2022-11-20T08:18:04;8.67;;;6.73;;
7128;SDS011;3606;52.930;8.644;2022-11-20T08:20:32;10.23;;;6.97;;
7128;SDS011;3606;52.930;8.644;2022-11-20T08:23:02;8.33;;;6.90;;
7128;SDS011;3606;52.930;8.644;2022-11-20T08:25:30;11.63;;;7.03;;
7128;SDS011;3606;52.930;8.644;2022-11-20T08:27:57;11.83;;;7.23;;
7128;SDS011;3606;52.930;8.644;2022-11-20T08:30:24;9.87;;;6.63;;
7128;SDS011;3606;52.930;8.644;2022-11-20T08:32:49;9.83;;;7.20;;
7128;SDS011;3606;52.930;8.644;2022-11-20T08:35:15;9.70;;;7.10;;
7128;SDS011;3606;52.930;8.644;2022-11-20T08:37:41;11.97;;;8.20;;
7128;SDS011;3606;52.930;8.644;2022-11-20T08:40:08;10.30;;;7.10;;
7128;SDS011;3606;52.930;8.644;2022-11-20T08:42:35;11.00;;;8.20;;
7128;SDS011;3606;52.930;8.644;2022-11-20T08:45:00;12.10;;;7.70;;
7128;SDS011;3606;52.930;8.644;2022-11-20T08:47:26;7.87;;;6.83;;
7128;SDS011;3606;52.930;8.644;2022-11-20T08:49:52;12.70;;;8.63;;
7128;SDS011;3606;52.930;8.644;2022-11-20T08:52:17;12.23;;;7.67;;
7128;SDS011;3606;52.930;8.644;2022-11-20T08:54:43;9.73;;;7.27;;
7128;SDS011;3606;52.930;8.644;2022-11-20T08:57:08;9.10;;;6.73;;
7128;SDS011;3606;52.930;8.644;2022-11-20T08:59:34;13.90;;;7.87;;
7128;SDS011;3606;52.930;8.644;2022-11-20T09:01:59;9.73;;;7.50;;
7128;SDS011;3606;52.930;8.644;2022-11-20T09:04:25;11.23;;;7.93;;
7128;SDS011;3606;52.930;8.644;2022-11-20T09:06:50;14.90;;;7.90;;
7128;SDS011;3606;52.930;8.644;2022-11-20T09:09:17;11.03;;;7.80;;
7128;SDS011;3606;52.930;8.644;2022-11-20T09:11:43;13.10;;;8.57;;
7128;SDS011;3606;52.930;8.644;2022-11-20T09:14:09;11.20;;;7.57;;
7128;SDS011;3606;52.930;8.644;2022-11-20T09:16:35;10.80;;;7.73;;
7128;SDS011;3606;52.930;8.644;2022-11-20T09:19:00;9.97;;;7.57;;
7128;SDS011;3606;52.930;8.644;2022-11-20T09:21:26;11.87;;;7.60;;
7128;SDS011;3606;52.930;8.644;2022-11-20T09:23:52;13.23;;;7.90;;
7128;SDS011;3606;52.930;8.644;2022-11-20T09:26:17;14.27;;;8.30;;
7128;SDS011;3606;52.930;8.644;2022-11-20T09:28:43;10.57;;;7.50;;
7128;SDS011;3606;52.930;8.644;2022-11-20T09:31:09;9.97;;;8.10;;
7128;SDS011;3606;52.930;8.644;2022-11-20T09:33:46;9.20;;;7.27;;
7128;SDS011;3606;52.930;8.644;2022-11-20T09:36:11;14.23;;;8.40;;
7128;SDS011;3606;52.930;8.644;2022-11-20T09:38:37;11.50;;;7.40;;
7128;SDS011;3606;52.930;8.644;2022-11-20T09:41:03;10.17;;;7.60;;
7128;SDS011;3606;52.930;8.644;2022-11-20T09:43:32;10.00;;;7.87;;
7128;SDS011;3606;52.930;8.644;2022-11-20T09:54:55;12.03;;;7.87;;
7128;SDS011;3606;52.930;8.644;2022-11-20T09:57:24;11.23;;;8.23;;
7128;SDS011;3606;52.930;8.644;2022-11-20T09:59:59;12.37;;;8.83;;
7128;SDS011;3606;52.930;8.644;2022-11-20T10:02:33;13.50;;;8.60;;
7128;SDS011;3606;52.930;8.644;2022-11-20T10:05:25;11.57;;;9.23;;
7128;SDS011;3606;52.930;8.644;2022-11-20T10:13:36;38.70;;;22.67;;
7128;SDS011;3606;52.930;8.644;2022-11-20T10:22:17;17.30;;;12.33;;
7128;SDS011;3606;52.930;8.644;2022-11-20T10:24:54;10.50;;;8.20;;
7128;SDS011;3606;52.930;8.644;2022-11-20T10:27:46;12.17;;;8.77;;
7128;SDS011;3606;52.930;8.644;2022-11-20T10:30:15;17.03;;;9.97;;
7128;SDS011;3606;52.930;8.644;2022-11-20T10:32:43;19.20;;;11.30;;
7128;SDS011;3606;52.930;8.644;2022-11-20T10:35:20;24.40;;;14.03;;
7128;SDS011;3606;52.930;8.644;2022-11-20T10:38:07;27.73;;;13.10;;
7128;SDS011;3606;52.930;8.644;2022-11-20T10:40:42;28.53;;;15.23;;
7128;SDS011;3606;52.930;8.644;2022-11-20T10:43:14;24.60;;;11.57;;
7128;SDS011;3606;52.930;8.644;2022-11-20T10:45:46;22.37;;;12.57;;
7128;SDS011;3606;52.930;8.644;2022-11-20T10:48:28;17.00;;;9.43;;
7128;SDS011;3606;52.930;8.644;2022-11-20T10:50:59;11.27;;;7.53;;
7128;SDS011;3606;52.930;8.644;2022-11-20T10:56:09;11.00;;;7.90;;
7128;SDS011;3606;52.930;8.644;2022-11-20T11:02:14;14.73;;;7.67;;
7128;SDS011;3606;52.930;8.644;2022-11-20T11:04:43;12.03;;;8.27;;
7128;SDS011;3606;52.930;8.644;2022-11-20T11:09:49;12.20;;;7.60;;
7128;SDS011;3606;52.930;8.644;2022-11-20T11:12:17;14.13;;;7.03;;
7128;SDS011;3606;52.930;8.644;2022-11-20T11:14:46;11.17;;;7.40;;
7128;SDS011;3606;52.930;8.644;2022-11-20T11:20:35;11.53;;;7.33;;
7128;SDS011;3606;52.930;8.644;2022-11-20T11:22:50;11.13;;;6.80;;
7128;SDS011;3606;52.930;8.644;2022-11-20T11:25:33;8.90;;;6.37;;
7128;SDS011;3606;52.930;8.644;2022-11-20T11:28:04;10.17;;;7.30;;
7128;SDS011;3606;52.930;8.644;2022-11-20T11:30:43;8.17;;;6.47;;
7128;SDS011;3606;52.930;8.644;2022-11-20T11:33:10;7.93;;;6.63;;
7128;SDS011;3606;52.930;8.644;2022-11-20T11:35:47;10.53;;;6.20;;
7128;SDS011;3606;52.930;8.644;2022-11-20T11:38:28;9.50;;;6.90;;
7128;SDS011;3606;52.930;8.644;2022-11-20T11:40:54;10.27;;;7.33;;
7128;SDS011;3606;52.930;8.644;2022-11-20T11:43:23;9.27;;;6.73;;
7128;SDS011;3606;52.930;8.644;2022-11-20T11:46:25;8.70;;;6.20;;
7128;SDS011;3606;52.930;8.644;2022-11-20T11:48:56;9.90;;;6.60;;
7128;SDS011;3606;52.930;8.644;2022-11-20T11:51:22;10.30;;;6.90;;
7128;SDS011;3606;52.930;8.644;2022-11-20T11:53:51;9.33;;;6.50;;
7128;SDS011;3606;52.930;8.644;2022-11-20T11:56:17;7.63;;;6.40;;
7128;SDS011;3606;52.930;8.644;2022-11-20T11:58:46;9.37;;;6.43;;
7128;SDS011;3606;52.930;8.644;2022-11-20T12:04:04;9.77;;;6.70;;
7128;SDS011;3606;52.930;8.644;2022-11-20T12:06:41;17.27;;;10.93;;
7128;SDS011;3606;52.930;8.644;2022-11-20T12:09:10;10.13;;;7.50;;
7128;SDS011;3606;52.930;8.644;2022-11-20T12:11:51;8.77;;;6.83;;
7128;SDS011;3606;52.930;8.644;2022-11-20T12:14:39;9.40;;;6.70;;
7128;SDS011;3606;52.930;8.644;2022-11-20T12:17:11;8.47;;;6.67;;
7128;SDS011;3606;52.930;8.644;2022-11-20T12:19:38;7.63;;;6.00;;
7128;SDS011;3606;52.930;8.644;2022-11-20T12:22:25;7.70;;;5.90;;
7128;SDS011;3606;52.930;8.644;2022-11-20T12:25:03;11.37;;;7.33;;
7128;SDS011;3606;52.930;8.644;2022-11-20T12:30:33;14.00;;;8.93;;
7128;SDS011;3606;52.930;8.644;2022-11-20T12:33:24;10.07;;;6.10;;
7128;SDS011;3606;52.930;8.644;2022-11-20T12:47:37;7.83;;;6.20;;
7128;SDS011;3606;52.930;8.644;2022-11-20T12:53:09;8.50;;;6.30;;
7128;SDS011;3606;52.930;8.644;2022-11-20T12:55:49;10.17;;;6.30;;
7128;SDS011;3606;52.930;8.644;2022-11-20T12:58:27;12.60;;;8.33;;
7128;SDS011;3606;52.930;8.644;2022-11-20T13:07:12;10.10;;;6.47;;
7128;SDS011;3606;52.930;8.644;2022-11-20T13:09:43;8.77;;;6.03;;
7128;SDS011;3606;52.930;8.644;2022-11-20T13:17:38;9.47;;;6.90;;
7128;SDS011;3606;52.930;8.644;2022-11-20T13:20:12;9.50;;;6.97;;
7128;SDS011;3606;52.930;8.644;2022-11-20T13:22:47;14.60;;;8.87;;
7128;SDS011;3606;52.930;8.644;2022-11-20T13:25:36;9.73;;;6.77;;
7128;SDS011;3606;52.930;8.644;2022-11-20T13:28:04;9.17;;;7.10;;
7128;SDS011;3606;52.930;8.644;2022-11-20T13:30:54;9.57;;;7.50;;
7128;SDS011;3606;52.930;8.644;2022-11-20T13:36:07;7.93;;;6.03;;
7128;SDS011;3606;52.930;8.644;2022-11-20T13:38:47;9.33;;;6.57;;
7128;SDS011;3606;52.930;8.644;2022-11-20T13:41:27;8.83;;;7.00;;
7128;SDS011;3606;52.930;8.644;2022-11-20T13:44:09;8.97;;;7.27;;
7128;SDS011;3606;52.930;8.644;2022-11-20T13:46:40;9.57;;;6.97;;
7128;SDS011;3606;52.930;8.644;2022-11-20T13:49:10;12.07;;;8.23;;
7128;SDS011;3606;52.930;8.644;2022-11-20T13:52:08;10.03;;;7.00;;
7128;SDS011;3606;52.930;8.644;2022-11-20T13:55:16;9.67;;;6.77;;
7128;SDS011;3606;52.930;8.644;2022-11-20T14:02:43;9.27;;;6.87;;
7128;SDS011;3606;52.930;8.644;2022-11-20T14:05:22;7.90;;;6.53;;
7128;SDS011;3606;52.930;8.644;2022-11-20T14:07:49;7.80;;;5.87;;
7128;SDS011;3606;52.930;8.644;2022-11-20T14:10:20;6.80;;;5.57;;
7128;SDS011;3606;52.930;8.644;2022-11-20T14:12:48;8.80;;;5.97;;
7128;SDS011;3606;52.930;8.644;2022-11-20T14:15:25;8.00;;;5.70;;
7128;SDS011;3606;52.930;8.644;2022-11-20T14:17:53;8.20;;;5.27;;
7128;SDS011;3606;52.930;8.644;2022-11-20T14:20:19;6.20;;;5.43;;
7128;SDS011;3606;52.930;8.644;2022-11-20T14:22:49;6.80;;;5.40;;
7128;SDS011;3606;52.930;8.644;2022-11-20T14:27:41;8.13;;;6.07;;
7128;SDS011;3606;52.930;8.644;2022-11-20T14:30:13;7.53;;;5.50;;
7128;SDS011;3606;52.930;8.644;2022-11-20T14:32:41;8.60;;;6.20;;
7128;SDS011;3606;52.930;8.644;2022-11-20T14:35:09;9.97;;;6.33;;
7128;SDS011;3606;52.930;8.644;2022-11-20T14:37:38;9.57;;;6.20;;
7128;SDS011;3606;52.930;8.644;2022-11-20T14:40:21;7.47;;;5.97;;
7128;SDS011;3606;52.930;8.644;2022-11-20T14:42:48;8.53;;;6.47;;
7128;SDS011;3606;52.930;8.644;2022-11-20T14:45:13;11.17;;;7.37;;
7128;SDS011;3606;52.930;8.644;2022-11-20T14:47:40;8.80;;;6.60;;
7128;SDS011;3606;52.930;8.644;2022-11-20T14:50:12;10.63;;;6.70;;
7128;SDS011;3606;52.930;8.644;2022-11-20T14:52:49;9.03;;;6.30;;
7128;SDS011;3606;52.930;8.644;2022-11-20T14:55:34;9.10;;;6.03;;
7128;SDS011;3606;52.930;8.644;2022-11-20T14:58:06;9.87;;;6.60;;
7128;SDS011;3606;52.930;8.644;2022-11-20T15:00:53;8.83;;;6.40;;
7128;SDS011;3606;52.930;8.644;2022-11-20T15:03:20;8.00;;;6.03;;
7128;SDS011;3606;52.930;8.644;2022-11-20T15:05:47;9.60;;;6.30;;
7128;SDS011;3606;52.930;8.644;2022-11-20T15:08:14;6.73;;;5.53;;
7128;SDS011;3606;52.930;8.644;2022-11-20T15:10:50;8.77;;;6.03;;
7128;SDS011;3606;52.930;8.644;2022-11-20T15:13:19;11.87;;;7.20;;
7128;SDS011;3606;52.930;8.644;2022-11-20T15:15:52;10.07;;;6.87;;
7128;SDS011;3606;52.930;8.644;2022-11-20T15:18:41;9.97;;;6.13;;
7128;SDS011;3606;52.930;8.644;2022-11-20T15:21:13;9.10;;;6.47;;
7128;SDS011;3606;52.930;8.644;2022-11-20T15:23:39;9.33;;;6.43;;
7128;SDS011;3606;52.930;8.644;2022-11-20T15:26:05;11.90;;;7.77;;
7128;SDS011;3606;52.930;8.644;2022-11-20T15:28:36;11.40;;;7.27;;
7128;SDS011;3606;52.930;8.644;2022-11-20T15:31:05;11.63;;;7.50;;
7128;SDS011;3606;52.930;8.644;2022-11-20T15:33:32;11.40;;;7.97;;
7128;SDS011;3606;52.930;8.644;2022-11-20T15:35:58;9.03;;;6.93;;
7128;SDS011;3606;52.930;8.644;2022-11-20T15:38:24;10.83;;;8.23;;
7128;SDS011;3606;52.930;8.644;2022-11-20T15:40:50;10.53;;;8.07;;
7128;SDS011;3606;52.930;8.644;2022-11-20T15:43:16;11.77;;;8.07;;
7128;SDS011;3606;52.930;8.644;2022-11-20T15:48:19;9.53;;;7.37;;
7128;SDS011;3606;52.930;8.644;2022-11-20T15:50:55;9.53;;;6.83;;
7128;SDS011;3606;52.930;8.644;2022-11-20T15:53:22;8.53;;;6.97;;
7128;SDS011;3606;52.930;8.644;2022-11-20T15:55:47;11.37;;;7.30;;
7128;SDS011;3606;52.930;8.644;2022-11-20T15:58:13;12.73;;;7.50;;
7128;SDS011;3606;52.930;8.644;2022-11-20T16:00:39;13.00;;;7.60;;
7128;SDS011;3606;52.930;8.644;2022-11-20T16:03:04;10.97;;;7.50;;
7128;SDS011;3606;52.930;8.644;2022-11-20T16:05:30;11.43;;;8.40;;
7128;SDS011;3606;52.930;8.644;2022-11-20T16:07:56;11.50;;;7.63;;
7128;SDS011;3606;52.930;8.644;2022-11-20T16:10:22;13.00;;;9.00;;
7128;SDS011;3606;52.930;8.644;2022-11-20T16:12:48;15.37;;;10.80;;
7128;SDS011;3606;52.930;8.644;2022-11-20T16:15:33;15.40;;;8.60;;
7128;SDS011;3606;52.930;8.644;2022-11-20T16:18:11;14.20;;;8.47;;
7128;SDS011;3606;52.930;8.644;2022-11-20T16:20:39;13.53;;;8.37;;
7128;SDS011;3606;52.930;8.644;2022-11-20T16:23:05;13.07;;;8.70;;
7128;SDS011;3606;52.930;8.644;2022-11-20T16:25:31;11.27;;;8.03;;
7128;SDS011;3606;52.930;8.644;2022-11-20T16:27:56;15.70;;;9.60;;
7128;SDS011;3606;52.930;8.644;2022-11-20T16:30:22;11.47;;;8.63;;
7128;SDS011;3606;52.930;8.644;2022-11-20T16:32:48;10.87;;;8.27;;
7128;SDS011;3606;52.930;8.644;2022-11-20T16:35:13;15.50;;;8.57;;
7128;SDS011;3606;52.930;8.644;2022-11-20T16:37:39;12.73;;;9.23;;
7128;SDS011;3606;52.930;8.644;2022-11-20T16:40:05;11.57;;;7.90;;